createdAt,value
2022-11-07T00:01:22.057Z,101241.94
2022-11-07T00:03:58.867Z,101238.59
2022-11-07T00:06:32.557Z,101238.20
2022-11-07T00:09:06.290Z,101236.70
2022-11-07T00:11:39.728Z,101236.08
2022-11-07T00:14:17.119Z,101237.37
2022-11-07T00:16:52.112Z,101230.00
2022-11-07T00:19:25.056Z,101228.41
2022-11-07T00:21:58.480Z,101231.59
2022-11-07T00:24:32.046Z,101228.44
2022-11-07T00:27:05.484Z,101216.05
2022-11-07T00:29:38.334Z,101214.14
2022-11-07T00:32:11.901Z,101212.25
2022-11-07T00:34:44.667Z,101210.50
2022-11-07T00:37:18.628Z,101219.33
2022-11-07T00:39:51.990Z,101215.58
2022-11-07T00:42:24.753Z,101218.48
2022-11-07T00:44:57.432Z,101215.80
2022-11-07T00:47:30.295Z,101216.42
2022-11-07T00:50:03.204Z,101213.84
2022-11-07T00:52:37.649Z,101209.58
2022-11-07T00:55:11.489Z,101213.45
2022-11-07T00:57:44.984Z,101207.74
2022-11-07T01:00:18.127Z,101207.98
2022-11-07T01:02:52.735Z,101203.05
2022-11-07T01:05:26.627Z,101196.05
2022-11-07T01:07:59.801Z,101203.05
2022-11-07T01:10:32.771Z,101206.69
2022-11-07T01:13:05.710Z,101210.13
2022-11-07T01:15:42.142Z,101210.78
2022-11-07T01:18:16.030Z,101209.95
2022-11-07T01:20:49.817Z,101212.69
2022-11-07T01:23:23.122Z,101216.72
2022-11-07T01:25:55.971Z,101205.40
2022-11-07T01:28:29.162Z,101206.25
2022-11-07T01:31:05.829Z,101205.72
2022-11-07T01:33:40.666Z,101209.66
2022-11-07T01:36:16.828Z,101209.03
2022-11-07T01:38:51.163Z,101199.63
2022-11-07T01:41:29.969Z,101202.87
2022-11-07T01:44:16.272Z,101202.42
2022-11-07T01:46:51.051Z,101196.11
2022-11-07T01:49:28.012Z,101198.76
2022-11-07T01:52:12.865Z,101200.20
2022-11-07T01:55:02.522Z,101195.03
2022-11-07T01:57:42.751Z,101197.47
2022-11-07T02:00:19.478Z,101193.14
2022-11-07T02:03:08.894Z,101194.22
2022-11-07T02:05:45.709Z,101193.02
2022-11-07T02:08:19.462Z,101197.25
2022-11-07T02:10:52.987Z,101193.22
2022-11-07T02:13:28.577Z,101197.09
2022-11-07T02:16:06.202Z,101197.48
2022-11-07T02:18:40.112Z,101194.91
2022-11-07T02:21:20.257Z,101200.22
2022-11-07T02:24:06.360Z,101195.69
2022-11-07T02:26:40.517Z,101195.14
2022-11-07T02:29:14.097Z,101187.62
2022-11-07T02:31:47.284Z,101192.84
2022-11-07T02:34:19.965Z,101188.82
2022-11-07T02:36:52.871Z,101191.10
2022-11-07T02:39:26.850Z,101190.05
2022-11-07T02:42:00.519Z,101190.80
2022-11-07T02:44:32.989Z,101193.37
2022-11-07T02:47:05.817Z,101179.56
2022-11-07T02:49:39.424Z,101185.33
2022-11-07T02:52:12.999Z,101179.80
2022-11-07T02:54:46.608Z,101180.55
2022-11-07T02:57:19.428Z,101177.22
2022-11-07T02:59:52.914Z,101183.73
2022-11-07T03:02:27.037Z,101182.91
2022-11-07T03:04:59.210Z,101185.09
2022-11-07T03:07:31.914Z,101185.64
2022-11-07T03:10:06.081Z,101180.08
2022-11-07T03:12:39.933Z,101180.32
2022-11-07T03:15:14.314Z,101175.30
2022-11-07T03:17:47.103Z,101174.56
2022-11-07T03:20:21.802Z,101176.73
2022-11-07T03:22:54.572Z,101178.86
2022-11-07T03:25:27.435Z,101180.48
2022-11-07T03:28:00.352Z,101176.53
2022-11-07T03:30:34.239Z,101178.11
2022-11-07T03:33:08.654Z,101173.02
2022-11-07T03:35:42.732Z,101172.99
2022-11-07T03:38:15.903Z,101177.92
2022-11-07T03:40:49.358Z,101169.56
2022-11-07T03:43:22.106Z,101161.34
2022-11-07T03:45:55.485Z,101166.74
2022-11-07T03:48:28.455Z,101159.82
2022-11-07T03:51:01.170Z,101157.16
2022-11-07T03:53:34.347Z,101155.24
2022-11-07T03:56:12.216Z,101153.88
2022-11-07T03:58:45.126Z,101156.88
2022-11-07T04:01:18.251Z,101155.83
2022-11-07T04:03:55.280Z,101151.64
2022-11-07T04:06:26.019Z,101151.17
2022-11-07T04:08:59.209Z,101146.44
2022-11-07T04:11:50.298Z,101139.00
2022-11-07T04:14:41.141Z,101143.68
2022-11-07T04:17:20.664Z,101147.39
2022-11-07T04:19:56.252Z,101146.11
2022-11-07T04:22:29.283Z,101143.37
2022-11-07T04:25:02.959Z,101151.84
2022-11-07T04:27:44.782Z,101147.11
2022-11-07T04:30:20.048Z,101148.79
2022-11-07T04:32:58.916Z,101145.63
2022-11-07T04:35:34.598Z,101145.40
2022-11-07T04:38:07.510Z,101148.20
2022-11-07T04:40:41.163Z,101155.78
2022-11-07T04:43:14.488Z,101164.27
2022-11-07T04:45:48.031Z,101162.97
2022-11-07T04:48:21.556Z,101162.74
2022-11-07T04:50:54.238Z,101170.28
2022-11-07T04:53:27.204Z,101166.03
2022-11-07T04:56:00.136Z,101158.45
2022-11-07T04:58:33.556Z,101157.09
2022-11-07T05:01:06.675Z,101156.51
2022-11-07T05:03:42.073Z,101163.66
2022-11-07T05:06:16.740Z,101166.37
2022-11-07T05:08:50.817Z,101166.37
2022-11-07T05:11:23.685Z,101164.33
2022-11-07T05:13:56.585Z,101170.04
2022-11-07T05:16:33.796Z,101167.45
2022-11-07T05:19:06.977Z,101165.78
2022-11-07T05:21:41.026Z,101165.94
2022-11-07T05:24:14.740Z,101163.13
2022-11-07T05:26:47.519Z,101160.28
2022-11-07T05:29:20.283Z,101163.72
2022-11-07T05:31:53.423Z,101166.97
2022-11-07T05:34:26.194Z,101163.26
2022-11-07T05:36:59.312Z,101167.12
2022-11-07T05:39:32.883Z,101160.52
2022-11-07T05:42:06.202Z,101165.09
2022-11-07T05:44:39.478Z,101170.57
2022-11-07T05:47:12.315Z,101162.75
2022-11-07T05:49:45.056Z,101167.52
2022-11-07T05:52:17.869Z,101168.07
2022-11-07T05:54:51.032Z,101168.23
2022-11-07T05:57:23.918Z,101160.48
2022-11-07T05:59:57.318Z,101164.52
2022-11-07T06:02:30.138Z,101167.25
2022-11-07T06:05:04.086Z,101174.56
2022-11-07T06:07:41.495Z,101163.77
2022-11-07T06:10:14.142Z,101172.69
2022-11-07T06:12:51.392Z,101168.34
2022-11-07T06:15:23.311Z,101163.64
2022-11-07T06:17:57.091Z,101165.95
2022-11-07T06:20:30.564Z,101161.55
2022-11-07T06:23:06.818Z,101157.16
2022-11-07T06:25:39.719Z,101161.17
2022-11-07T06:28:15.273Z,101146.28
2022-11-07T06:30:48.081Z,101149.47
2022-11-07T06:33:21.680Z,101143.83
2022-11-07T06:35:55.425Z,101144.59
2022-11-07T06:38:28.745Z,101141.47
2022-11-07T06:41:14.190Z,101139.63
2022-11-07T06:43:47.239Z,101135.36
2022-11-07T06:46:23.020Z,101142.88
2022-11-07T06:48:57.234Z,101137.66
2022-11-07T06:51:30.296Z,101143.42
2022-11-07T06:54:03.165Z,101142.58
2022-11-07T06:56:36.671Z,101132.06
2022-11-07T06:59:09.985Z,101128.81
2022-11-07T07:01:42.879Z,101127.61
2022-11-07T07:04:15.856Z,101124.10
2022-11-07T07:06:49.716Z,101128.67
2022-11-07T07:09:22.999Z,101123.06
2022-11-07T07:11:55.681Z,101118.89
2022-11-07T07:14:29.685Z,101112.38
2022-11-07T07:17:02.828Z,101119.78
2022-11-07T07:19:35.933Z,101111.30
2022-11-07T07:22:14.845Z,101106.54
2022-11-07T07:24:49.244Z,101104.91
2022-11-07T07:27:22.686Z,101110.94
2022-11-07T07:29:56.250Z,101107.08
2022-11-07T07:32:29.420Z,101103.35
2022-11-07T07:35:03.524Z,101102.22
2022-11-07T07:37:36.769Z,101095.53
2022-11-07T07:40:11.093Z,101093.50
2022-11-07T07:42:45.258Z,101089.23
2022-11-07T07:45:18.795Z,101086.55
2022-11-07T07:47:53.292Z,101081.75
2022-11-07T07:50:27.058Z,101083.71
2022-11-07T07:53:04.783Z,101082.69
2022-11-07T07:55:35.011Z,101086.59
2022-11-07T07:58:08.227Z,101081.68
2022-11-07T08:00:41.631Z,101078.72
2022-11-07T08:03:15.663Z,101079.62
2022-11-07T08:05:55.356Z,101082.97
2022-11-07T08:08:33.876Z,101082.21
2022-11-07T08:11:07.710Z,101084.94
2022-11-07T08:13:42.183Z,101079.14
2022-11-07T08:16:14.810Z,101080.58
2022-11-07T08:18:47.571Z,101081.76
2022-11-07T08:21:21.249Z,101078.41
2022-11-07T08:23:55.196Z,101078.94
2022-11-07T08:26:28.223Z,101072.86
2022-11-07T08:29:01.171Z,101070.66
2022-11-07T08:31:34.110Z,101069.36
2022-11-07T08:34:06.899Z,101063.14
2022-11-07T08:36:40.110Z,101061.34
2022-11-07T08:39:13.209Z,101055.78
2022-11-07T08:41:46.183Z,101053.17
2022-11-07T08:44:19.039Z,101043.59
2022-11-07T08:46:52.644Z,101038.66
2022-11-07T08:49:25.558Z,101044.52
2022-11-07T08:51:58.672Z,101044.72
2022-11-07T08:54:32.729Z,101052.11
2022-11-07T08:57:05.575Z,101045.12
2022-11-07T08:59:39.076Z,101049.02
2022-11-07T09:02:57.339Z,101045.26
2022-11-07T09:04:50.196Z,101041.36
2022-11-07T09:07:24.405Z,101033.31
2022-11-07T09:09:57.820Z,101046.02
2022-11-07T09:12:30.524Z,101035.80
2022-11-07T09:15:04.000Z,101029.57
2022-11-07T09:17:37.453Z,101029.97
2022-11-07T09:20:11.605Z,101035.30
2022-11-07T09:22:45.301Z,101033.35
2022-11-07T09:25:18.541Z,101031.02
2022-11-07T09:27:53.901Z,101029.70
2022-11-07T09:30:27.252Z,101029.20
2022-11-07T09:33:00.604Z,101021.13
2022-11-07T09:35:33.827Z,101021.52
2022-11-07T09:38:07.278Z,101024.63
2022-11-07T09:41:08.984Z,101021.11
2022-11-07T09:44:07.959Z,101020.20
2022-11-07T09:47:06.787Z,101023.30
2022-11-07T09:49:45.986Z,101010.53
2022-11-07T09:52:59.719Z,101011.06
2022-11-07T09:55:54.758Z,101013.66
2022-11-07T09:58:35.238Z,101008.57
2022-11-07T10:01:12.951Z,101004.00
2022-11-07T10:04:18.002Z,101010.36
2022-11-07T10:06:34.507Z,101005.78
2022-11-07T10:09:23.958Z,101009.00
2022-11-07T10:12:24.024Z,101008.88
2022-11-07T10:15:26.960Z,100998.97
2022-11-07T10:18:23.965Z,100995.88
2022-11-07T10:21:38.806Z,100989.75
2022-11-07T10:24:34.478Z,100987.67
2022-11-07T10:27:12.389Z,100976.50
2022-11-07T10:29:53.987Z,100985.33
2022-11-07T10:32:41.515Z,100977.24
2022-11-07T10:35:26.217Z,100971.88
2022-11-07T10:38:05.064Z,100976.44
2022-11-07T10:40:41.783Z,100971.60
2022-11-07T10:43:19.231Z,100976.03
2022-11-07T10:45:53.913Z,100971.07
2022-11-07T10:48:28.544Z,100970.67
2022-11-07T10:51:02.912Z,100971.60
2022-11-07T10:53:37.146Z,100964.98
2022-11-07T10:56:12.692Z,100962.91
2022-11-07T10:58:48.643Z,100963.59
2022-11-07T11:01:27.738Z,100960.22
2022-11-07T11:04:01.215Z,100957.00
2022-11-07T11:06:34.509Z,100951.92
2022-11-07T11:09:19.175Z,100953.51
2022-11-07T11:11:54.180Z,100950.50
2022-11-07T11:14:27.475Z,100941.41
2022-11-07T11:17:01.099Z,100939.20
2022-11-07T11:19:54.830Z,100945.98
2022-11-07T11:22:30.610Z,100938.84
2022-11-07T11:25:24.175Z,100933.52
2022-11-07T11:28:07.771Z,100931.07
2022-11-07T11:30:40.639Z,100927.42
2022-11-07T11:33:24.191Z,100925.50
2022-11-07T11:36:12.375Z,100923.19
2022-11-07T11:38:56.535Z,100925.37
2022-11-07T11:41:42.402Z,100927.20
2022-11-07T11:44:45.566Z,100920.70
2022-11-07T11:47:29.145Z,100922.91
2022-11-07T11:50:08.421Z,100922.25
2022-11-07T11:52:42.254Z,100916.44
2022-11-07T11:55:18.256Z,100925.41
2022-11-07T11:57:58.554Z,100914.89
2022-11-07T12:00:35.034Z,100926.95
2022-11-07T12:03:32.955Z,100919.56
2022-11-07T12:06:43.254Z,100931.38
2022-11-07T12:09:23.890Z,100915.02
2022-11-07T12:12:35.620Z,100913.31
2022-11-07T12:15:35.895Z,100912.42
2022-11-07T12:18:42.112Z,100920.86
2022-11-07T12:21:33.788Z,100913.84
2022-11-07T12:24:35.671Z,100910.63
2022-11-07T12:27:39.409Z,100910.63
2022-11-07T12:30:28.962Z,100907.63
2022-11-07T12:33:22.868Z,100908.92
2022-11-07T12:36:08.951Z,100912.29
2022-11-07T12:39:08.515Z,100907.90
2022-11-07T12:42:09.435Z,100917.11
2022-11-07T12:45:00.435Z,100900.38
2022-11-07T12:48:02.296Z,100911.83
2022-11-07T12:51:01.309Z,100906.38
2022-11-07T12:54:16.217Z,100909.66
2022-11-07T12:56:47.186Z,100916.27
2022-11-07T12:59:29.628Z,100913.70
2022-11-07T13:02:16.800Z,100911.37
2022-11-07T13:05:03.497Z,100908.80
2022-11-07T13:07:44.543Z,100914.23
2022-11-07T13:10:27.949Z,100905.17
2022-11-07T13:13:08.629Z,100911.02
2022-11-07T13:16:13.737Z,100903.90
2022-11-07T13:18:29.063Z,100902.97
2022-11-07T13:21:05.131Z,100911.03
2022-11-07T13:23:38.881Z,100905.22
2022-11-07T13:26:32.873Z,100902.37
2022-11-07T13:28:59.698Z,100903.14
2022-11-07T13:31:41.060Z,100906.12
2022-11-07T13:34:26.196Z,100899.09
2022-11-07T13:37:02.849Z,100904.17
2022-11-07T13:39:36.106Z,100893.27
2022-11-07T13:42:12.365Z,100895.75
2022-11-07T13:44:55.968Z,100892.00
2022-11-07T13:47:36.197Z,100894.34
2022-11-07T13:50:22.104Z,100892.25
2022-11-07T13:53:02.245Z,100884.08
2022-11-07T13:55:51.407Z,100882.92
2022-11-07T13:58:24.808Z,100884.23
2022-11-07T14:01:10.913Z,100873.21
2022-11-07T14:03:44.066Z,100878.64
2022-11-07T14:06:17.744Z,100872.30
2022-11-07T14:08:51.285Z,100870.08
2022-11-07T14:11:25.644Z,100868.79
2022-11-07T14:13:58.390Z,100867.50
2022-11-07T14:16:32.247Z,100864.64
2022-11-07T14:19:08.891Z,100858.03
2022-11-07T14:21:45.126Z,100858.80
2022-11-07T14:24:28.122Z,100862.52
2022-11-07T14:27:08.933Z,100864.21
2022-11-07T14:29:57.458Z,100865.37
2022-11-07T14:32:32.159Z,100864.97
2022-11-07T14:35:09.255Z,100862.88
2022-11-07T14:37:42.476Z,100867.52
2022-11-07T14:40:15.512Z,100865.05
2022-11-07T14:42:49.320Z,100866.61
2022-11-07T14:45:56.583Z,100864.02
2022-11-07T14:47:59.594Z,100869.16
2022-11-07T14:50:33.265Z,100868.61
2022-11-07T14:53:23.075Z,100864.72
2022-11-07T14:56:00.095Z,100864.98
2022-11-07T14:58:33.562Z,100866.00
2022-11-07T15:01:14.129Z,100865.19
2022-11-07T15:04:00.161Z,100858.17
2022-11-07T15:06:36.170Z,100866.19
2022-11-07T15:09:11.550Z,100868.84
2022-11-07T15:11:52.390Z,100866.35
2022-11-07T15:14:37.925Z,100865.04
2022-11-07T15:17:23.810Z,100865.52
2022-11-07T15:20:07.271Z,100855.28
2022-11-07T15:22:42.163Z,100855.77
2022-11-07T15:25:40.233Z,100858.87
2022-11-07T15:28:26.752Z,100860.10
2022-11-07T15:31:01.883Z,100857.89
2022-11-07T15:33:39.148Z,100850.74
2022-11-07T15:36:12.282Z,100845.57
2022-11-07T15:38:45.791Z,100846.86
2022-11-07T15:41:19.076Z,100845.97
2022-11-07T15:43:51.947Z,100843.23
2022-11-07T15:46:37.523Z,100839.47
2022-11-07T15:49:12.609Z,100845.80
2022-11-07T15:51:45.496Z,100849.25
2022-11-07T15:54:19.068Z,100858.16
2022-11-07T15:56:57.333Z,100863.34
2022-11-07T15:59:32.113Z,100863.34
2022-11-07T16:02:05.970Z,100864.77
2022-11-07T16:04:39.909Z,100865.53
2022-11-07T16:07:21.058Z,100868.37
2022-11-07T16:09:54.714Z,100869.12
2022-11-07T16:12:27.780Z,100863.67
2022-11-07T16:15:00.852Z,100865.07
2022-11-07T16:17:34.598Z,100859.22
2022-11-07T16:20:11.607Z,100866.33
2022-11-07T16:22:46.118Z,100866.05
2022-11-07T16:25:22.715Z,100864.69
2022-11-07T16:28:00.643Z,100866.48
2022-11-07T16:30:34.763Z,100871.72
2022-11-07T16:33:07.490Z,100873.81
2022-11-07T16:35:40.554Z,100878.98
2022-11-07T16:38:19.322Z,100878.58
2022-11-07T16:40:53.117Z,100881.92
2022-11-07T16:43:26.826Z,100882.17
2022-11-07T16:45:59.827Z,100879.98
2022-11-07T16:48:33.960Z,100879.98
2022-11-07T16:51:06.890Z,100870.04
2022-11-07T16:53:40.430Z,100882.56
2022-11-07T16:56:26.931Z,100875.20
2022-11-07T16:59:01.877Z,100871.19
2022-11-07T17:01:36.652Z,100882.53
2022-11-07T17:04:10.030Z,100878.50
2022-11-07T17:06:45.997Z,100875.99
2022-11-07T17:09:22.127Z,100879.22
2022-11-07T17:11:55.492Z,100866.37
2022-11-07T17:14:28.595Z,100867.52
2022-11-07T17:17:01.325Z,100862.59
2022-11-07T17:19:34.760Z,100867.63
2022-11-07T17:22:08.793Z,100866.97
2022-11-07T17:24:43.262Z,100864.84
2022-11-07T17:27:26.984Z,100869.33
2022-11-07T17:30:03.348Z,100864.52
2022-11-07T17:32:37.163Z,100861.39
2022-11-07T17:35:31.294Z,100854.14
2022-11-07T17:37:46.621Z,100852.16
2022-11-07T17:40:22.744Z,100843.73
2022-11-07T17:42:57.131Z,100845.88
2022-11-07T17:45:30.521Z,100845.29
2022-11-07T17:48:03.652Z,100848.36
2022-11-07T17:50:38.800Z,100863.56
2022-11-07T17:53:11.705Z,100865.09
2022-11-07T17:55:44.563Z,100870.77
2022-11-07T17:58:18.959Z,100868.58
2022-11-07T18:00:52.542Z,100865.09
2022-11-07T18:03:26.287Z,100864.95
2022-11-07T18:06:01.066Z,100860.39
2022-11-07T18:08:51.360Z,100858.80
2022-11-07T18:11:09.846Z,100864.56
2022-11-07T18:13:43.346Z,100860.79
2022-11-07T18:16:22.289Z,100861.69
2022-11-07T18:18:55.708Z,100856.38
2022-11-07T18:21:29.643Z,100851.07
2022-11-07T18:24:02.557Z,100846.55
2022-11-07T18:26:37.222Z,100846.48
2022-11-07T18:29:13.666Z,100847.94
2022-11-07T18:31:49.944Z,100844.52
2022-11-07T18:34:23.226Z,100845.30
2022-11-07T18:36:56.224Z,100846.59
2022-11-07T18:39:29.349Z,100837.26
2022-11-07T18:42:02.502Z,100844.45
2022-11-07T18:44:35.672Z,100843.66
2022-11-07T18:47:09.517Z,100843.05
2022-11-07T18:49:42.504Z,100853.07
2022-11-07T18:52:16.552Z,100840.77
2022-11-07T18:54:49.605Z,100837.38
2022-11-07T18:57:22.652Z,100837.38
2022-11-07T18:59:56.309Z,100846.41
2022-11-07T19:02:31.661Z,100845.56
2022-11-07T19:05:06.118Z,100845.11
2022-11-07T19:07:41.461Z,100849.66
2022-11-07T19:10:16.300Z,100847.53
2022-11-07T19:12:49.510Z,100844.05
2022-11-07T19:15:24.315Z,100850.11
2022-11-07T19:17:57.857Z,100848.70
2022-11-07T19:20:31.627Z,100850.73
2022-11-07T19:23:04.580Z,100843.44
2022-11-07T19:25:43.199Z,100845.95
2022-11-07T19:28:16.458Z,100852.84
2022-11-07T19:30:50.042Z,100857.41
2022-11-07T19:33:23.334Z,100858.61
2022-11-07T19:36:06.047Z,100853.55
2022-11-07T19:38:39.001Z,100853.86
2022-11-07T19:41:14.227Z,100859.44
2022-11-07T19:43:50.323Z,100858.25
2022-11-07T19:46:25.015Z,100859.99
2022-11-07T19:48:57.298Z,100857.38
2022-11-07T19:51:29.941Z,100851.69
2022-11-07T19:54:03.977Z,100850.61
2022-11-07T19:56:39.114Z,100849.52
2022-11-07T19:59:12.671Z,100850.13
2022-11-07T20:01:58.749Z,100850.27
2022-11-07T20:04:20.705Z,100849.67
2022-11-07T20:06:55.273Z,100849.58
2022-11-07T20:09:28.006Z,100847.08
2022-11-07T20:12:01.347Z,100852.05
2022-11-07T20:14:35.199Z,100850.96
2022-11-07T20:17:08.888Z,100840.17
2022-11-07T20:19:42.646Z,100841.38
2022-11-07T20:22:15.660Z,100839.08
2022-11-07T20:24:48.633Z,100839.38
2022-11-07T20:27:21.499Z,100842.34
2022-11-07T20:29:54.151Z,100841.06
2022-11-07T20:32:28.168Z,100843.25
2022-11-07T20:35:02.287Z,100836.19
2022-11-07T20:37:36.517Z,100842.94
2022-11-07T20:40:11.161Z,100837.81
2022-11-07T20:42:44.231Z,100843.42
2022-11-07T20:45:17.067Z,100846.58
2022-11-07T20:47:51.646Z,100844.04
2022-11-07T20:50:25.858Z,100853.38
2022-11-07T20:53:00.085Z,100843.43
2022-11-07T20:55:35.815Z,100845.33
2022-11-07T20:58:08.744Z,100844.80
2022-11-07T21:00:42.861Z,100844.19
2022-11-07T21:03:15.974Z,100846.16
2022-11-07T21:05:54.508Z,100843.08
2022-11-07T21:08:28.903Z,100840.92
2022-11-07T21:11:01.723Z,100837.63
2022-11-07T21:13:35.468Z,100840.10
2022-11-07T21:16:10.099Z,100836.08
2022-11-07T21:18:43.352Z,100842.40
2022-11-07T21:21:20.523Z,100836.73
2022-11-07T21:23:54.107Z,100835.30
2022-11-07T21:26:34.492Z,100838.77
2022-11-07T21:29:11.216Z,100838.09
2022-11-07T21:31:45.225Z,100828.91
2022-11-07T21:34:18.846Z,100834.32
2022-11-07T21:36:51.763Z,100829.41
2022-11-07T21:39:24.777Z,100828.11
2022-11-07T21:41:58.455Z,100822.70
2022-11-07T21:44:31.608Z,100822.59
2022-11-07T21:47:04.535Z,100823.02
2022-11-07T21:49:37.504Z,100820.97
2022-11-07T21:52:11.692Z,100818.00
2022-11-07T21:54:45.453Z,100818.39
2022-11-07T21:57:19.610Z,100815.27
2022-11-07T21:59:52.666Z,100817.20
2022-11-07T22:02:25.597Z,100816.38
2022-11-07T22:04:58.716Z,100818.42
2022-11-07T22:07:34.966Z,100823.84
2022-11-07T22:10:09.710Z,100822.41
2022-11-07T22:12:43.280Z,100815.45
2022-11-07T22:15:16.253Z,100821.12
2022-11-07T22:17:49.784Z,100820.51
2022-11-07T22:20:22.626Z,100821.02
2022-11-07T22:22:55.702Z,100818.67
2022-11-07T22:25:28.504Z,100821.77
2022-11-07T22:28:01.396Z,100819.11
2022-11-07T22:30:34.912Z,100817.16
2022-11-07T22:33:08.428Z,100819.96
2022-11-07T22:35:41.695Z,100820.25
2022-11-07T22:38:14.482Z,100819.25
2022-11-07T22:40:48.537Z,100818.64
2022-11-07T22:43:21.259Z,100821.52
2022-11-07T22:45:54.403Z,100816.48
2022-11-07T22:48:27.451Z,100822.55
2022-11-07T22:51:05.679Z,100816.23
2022-11-07T22:53:40.395Z,100817.67
2022-11-07T22:56:19.075Z,100821.69
2022-11-07T22:58:52.094Z,100827.14
2022-11-07T23:01:34.058Z,100832.45
2022-11-07T23:04:07.922Z,100831.70
2022-11-07T23:06:41.399Z,100832.45
2022-11-07T23:09:17.330Z,100835.36
2022-11-07T23:11:50.376Z,100832.38
2022-11-07T23:14:25.289Z,100833.39
2022-11-07T23:16:57.945Z,100837.48
2022-11-07T23:19:30.841Z,100840.84
2022-11-07T23:22:03.771Z,100839.45
2022-11-07T23:24:38.577Z,100836.37
2022-11-07T23:27:11.648Z,100836.37
2022-11-07T23:29:45.490Z,100835.86
2022-11-07T23:32:18.549Z,100828.87
2022-11-07T23:34:54.510Z,100827.72
2022-11-07T23:37:27.228Z,100831.48
2022-11-07T23:40:00.294Z,100822.09
2022-11-07T23:42:33.687Z,100829.19
2022-11-07T23:45:24.879Z,100827.55
2022-11-07T23:48:19.179Z,100826.72
2022-11-07T23:51:03.649Z,100833.42
2022-11-07T23:53:56.003Z,100826.18
2022-11-07T23:56:30.264Z,100825.42
2022-11-07T23:59:20.926Z,100821.69
